Heute – Wetterdaten im Stunden Intervall

Wetterdaten stündlich vom aktuellen Tag
DatumAussentemperaturLuftdruckLuftfeuchtigkeitWindstärke Windböe Regen
20.10.19, 23:05 11.0 °C 1009.8 hPa 98 % 0.0 km/h 1.8 km/h 8.0 mm
20.10.19, 22:00 11.1 °C 1009.3 hPa 97 % 6.8 km/h 6.8 km/h 7.8 mm
20.10.19, 21:05 11.0 °C 1008.9 hPa 97 % 0.0 km/h 1.8 km/h 7.8 mm
20.10.19, 20:05 10.9 °C 1008.7 hPa 97 % 0.0 km/h 3.2 km/h 7.8 mm
20.10.19, 19:05 10.8 °C 1008.1 hPa 97 % 0.0 km/h 3.2 km/h 7.6 mm
20.10.19, 18:05 11.0 °C 1008.2 hPa 97 % 5.0 km/h 10.1 km/h 7.6 mm
20.10.19, 17:05 10.9 °C 1007.9 hPa 96 % 1.8 km/h 3.2 km/h 7.4 mm
20.10.19, 16:05 11.1 °C 1008.0 hPa 95 % 1.8 km/h 5.0 km/h 6.8 mm
20.10.19, 15:05 11.2 °C 1008.1 hPa 96 % 1.8 km/h 5.0 km/h 6.0 mm
20.10.19, 14:05 11.9 °C 1008.2 hPa 97 % 0.0 km/h 1.8 km/h 3.8 mm
20.10.19, 13:05 12.1 °C 1008.2 hPa 97 % 0.0 km/h 1.8 km/h 2.8 mm
20.10.19, 12:00 12.1 °C 1008.5 hPa 97 % 0.0 km/h 0.0 km/h 1.6 mm
20.10.19, 11:05 11.9 °C 1008.6 hPa 97 % 0.0 km/h 1.8 km/h 0.2 mm
20.10.19, 10:05 11.6 °C 1008.2 hPa 97 % 0.0 km/h 3.2 km/h 0.2 mm
20.10.19, 09:05 10.7 °C 1008.0 hPa 97 % 0.0 km/h 0.0 km/h 0.2 mm
20.10.19, 08:00 10.6 °C 1007.7 hPa 97 % 0.0 km/h 0.0 km/h 0.2 mm
20.10.19, 07:05 10.6 °C 1007.8 hPa 97 % 0.0 km/h 0.0 km/h 0.2 mm
20.10.19, 06:05 10.6 °C 1007.5 hPa 97 % 0.0 km/h 3.2 km/h 0.2 mm
20.10.19, 05:05 10.6 °C 1007.2 hPa 97 % 0.0 km/h 0.0 km/h 0.2 mm
20.10.19, 04:05 10.5 °C 1007.2 hPa 97 % 0.0 km/h 1.8 km/h 0.2 mm
20.10.19, 03:00 10.6 °C 1007.3 hPa 96 % 0.0 km/h 0.0 km/h 0.2 mm
20.10.19, 02:05 10.6 °C 1007.2 hPa 96 % 0.0 km/h 0.0 km/h 0.2 mm
20.10.19, 01:05 10.7 °C 1007.4 hPa 96 % 0.0 km/h 0.0 km/h 0.2 mm
20.10.19, 00:00 10.7 °C 1007.2 hPa 96 % 0.0 km/h 3.2 km/h 0.0 mm